createdAt,value
2023-03-17T00:00:11.533Z,1.18
2023-03-17T00:03:13.166Z,1.20
2023-03-17T00:06:18.066Z,1.18
2023-03-17T00:09:23.515Z,1.19
2023-03-17T00:12:27.464Z,1.18
2023-03-17T00:15:28.600Z,1.17
2023-03-17T00:18:31.783Z,1.19
2023-03-17T00:21:43.773Z,1.18
2023-03-17T00:24:48.473Z,1.19
2023-03-17T00:27:53.460Z,1.19
2023-03-17T00:30:58.839Z,1.16
2023-03-17T00:34:07.121Z,1.16
2023-03-17T00:37:10.538Z,1.15
2023-03-17T00:40:10.476Z,1.15
2023-03-17T00:43:17.964Z,1.14
2023-03-17T00:46:31.551Z,1.13
2023-03-17T00:49:34.633Z,1.14
2023-03-17T00:52:43.665Z,1.17
2023-03-17T00:55:44.556Z,1.20
2023-03-17T00:58:49.587Z,1.22
2023-03-17T01:01:50.557Z,1.22
2023-03-17T01:05:06.262Z,1.22
2023-03-17T01:08:15.231Z,1.23
2023-03-17T01:11:15.564Z,1.22
2023-03-17T01:14:17.583Z,1.21
2023-03-17T01:17:22.774Z,1.20
2023-03-17T01:20:51.814Z,1.20
2023-03-17T01:23:51.581Z,1.20
2023-03-17T01:26:52.573Z,1.19
2023-03-17T01:29:52.633Z,1.17
2023-03-17T01:32:57.669Z,1.19
2023-03-17T01:35:58.679Z,1.20
2023-03-17T01:39:01.600Z,1.22
2023-03-17T01:42:21.615Z,1.21
2023-03-17T01:45:43.636Z,1.19
2023-03-17T01:48:50.553Z,1.19
2023-03-17T01:52:00.701Z,1.18
2023-03-17T01:55:08.756Z,1.20
2023-03-17T01:58:09.997Z,1.20
2023-03-17T02:01:10.904Z,1.19
2023-03-17T02:04:10.717Z,1.17
2023-03-17T02:07:12.622Z,1.17
2023-03-17T02:10:14.765Z,1.14
2023-03-17T02:13:21.795Z,1.13
2023-03-17T02:16:25.874Z,1.14
2023-03-17T02:19:27.048Z,1.15
2023-03-17T02:22:34.465Z,1.14
2023-03-17T02:25:36.270Z,1.13
2023-03-17T02:28:37.743Z,1.11
2023-03-17T02:31:37.669Z,1.09
2023-03-17T02:34:38.695Z,1.05
2023-03-17T02:37:38.707Z,1.04
2023-03-17T02:40:41.219Z,1.02
2023-03-17T02:43:45.788Z,1.01
2023-03-17T02:46:47.951Z,0.99
2023-03-17T02:49:48.915Z,0.97
2023-03-17T02:52:49.745Z,0.98
2023-03-17T02:55:51.704Z,0.99
2023-03-17T02:58:52.714Z,1.00
2023-03-17T03:01:59.275Z,1.02
2023-03-17T03:05:03.238Z,1.05
2023-03-17T03:08:05.987Z,1.06
2023-03-17T03:11:08.747Z,1.04
2023-03-17T03:14:12.118Z,1.05
2023-03-17T03:17:12.953Z,1.06
2023-03-17T03:20:16.873Z,1.05
2023-03-17T03:23:19.088Z,1.03
2023-03-17T03:26:22.889Z,1.02
2023-03-17T03:29:27.862Z,1.02
2023-03-17T03:32:28.788Z,1.01
2023-03-17T03:35:28.825Z,1.00
2023-03-17T03:38:33.906Z,0.99
2023-03-17T03:41:39.396Z,1.00
2023-03-17T03:44:45.640Z,0.97
2023-03-17T03:47:45.814Z,0.96
2023-03-17T03:50:47.792Z,0.98
2023-03-17T03:53:48.925Z,0.95
2023-03-17T03:56:49.915Z,0.94
2023-03-17T03:59:49.878Z,0.95
2023-03-17T04:02:53.865Z,0.96
2023-03-17T04:05:55.297Z,0.99
2023-03-17T04:08:58.419Z,0.99
2023-03-17T04:11:59.950Z,1.01
2023-03-17T04:14:59.861Z,1.03
2023-03-17T04:18:06.031Z,1.04
2023-03-17T04:21:08.837Z,1.05
2023-03-17T04:24:11.126Z,1.05
2023-03-17T04:27:13.874Z,1.02
2023-03-17T04:30:15.976Z,1.03
2023-03-17T04:33:16.997Z,1.03
2023-03-17T04:36:18.339Z,1.05
2023-03-17T04:39:23.767Z,1.09
2023-03-17T04:42:36.971Z,1.13
2023-03-17T04:45:36.921Z,1.15
2023-03-17T04:48:37.937Z,1.13
2023-03-17T04:51:52.920Z,1.10
2023-03-17T04:55:07.945Z,1.11
2023-03-17T04:58:18.193Z,1.13
2023-03-17T05:01:30.190Z,1.14
2023-03-17T05:04:33.005Z,1.16
2023-03-17T05:07:34.354Z,1.21
2023-03-17T05:10:36.310Z,1.25
2023-03-17T05:13:37.012Z,1.27
2023-03-17T05:16:39.202Z,1.25
2023-03-17T05:19:42.938Z,1.23
2023-03-17T05:22:47.238Z,1.22
2023-03-17T05:25:51.078Z,1.24
2023-03-17T05:28:54.963Z,1.28
2023-03-17T05:31:57.554Z,1.28
2023-03-17T05:35:00.001Z,1.25
2023-03-17T05:38:03.161Z,1.23
2023-03-17T05:41:03.531Z,1.28
2023-03-17T05:44:07.216Z,1.30
2023-03-17T05:47:10.174Z,1.31
2023-03-17T05:50:11.061Z,1.32
2023-03-17T05:53:13.039Z,1.34
2023-03-17T05:56:16.065Z,1.37
2023-03-17T05:59:16.374Z,1.38
2023-03-17T06:02:23.127Z,1.40
2023-03-17T06:05:25.326Z,1.43
2023-03-17T06:08:32.106Z,1.46
2023-03-17T06:11:33.315Z,1.50
2023-03-17T06:14:40.200Z,1.51
2023-03-17T06:17:59.516Z,1.56
2023-03-17T06:21:04.066Z,1.56
2023-03-17T06:24:10.484Z,1.56
2023-03-17T06:27:14.086Z,1.58
2023-03-17T06:30:15.301Z,1.60
2023-03-17T06:33:20.070Z,1.63
2023-03-17T06:36:31.550Z,1.68
2023-03-17T06:39:33.109Z,1.72
2023-03-17T06:42:38.165Z,1.79
2023-03-17T06:45:43.120Z,1.82
2023-03-17T06:48:44.175Z,1.81
2023-03-17T06:51:48.281Z,1.82
2023-03-17T06:58:09.603Z,1.87
2023-03-17T07:01:15.580Z,1.88
2023-03-17T07:04:17.170Z,1.87
2023-03-17T07:07:19.188Z,1.85
2023-03-17T07:10:24.573Z,1.84
2023-03-17T07:13:27.454Z,1.85
2023-03-17T07:16:32.441Z,1.85
2023-03-17T07:19:37.160Z,1.84
2023-03-17T07:22:38.270Z,1.87
2023-03-17T07:25:45.229Z,1.90
2023-03-17T07:28:48.653Z,1.91
2023-03-17T07:31:50.229Z,1.94
2023-03-17T07:34:57.629Z,2.00
2023-03-17T07:38:01.823Z,2.03
2023-03-17T07:41:03.230Z,2.02
2023-03-17T07:44:05.243Z,2.08
2023-03-17T07:47:05.772Z,2.12
2023-03-17T07:50:13.503Z,2.07
2023-03-17T07:53:13.308Z,2.08
2023-03-17T07:56:14.212Z,2.09
2023-03-17T07:59:15.459Z,2.08
2023-03-17T08:02:28.442Z,2.07
2023-03-17T08:05:28.257Z,2.06
2023-03-17T08:08:23.617Z,2.07
2023-03-17T08:11:30.734Z,2.08
2023-03-17T08:14:37.391Z,2.10
2023-03-17T08:17:52.519Z,2.17
2023-03-17T08:21:18.378Z,2.20
2023-03-17T08:24:22.399Z,2.16
2023-03-17T08:27:27.371Z,2.13
2023-03-17T08:30:33.710Z,2.13
2023-03-17T08:33:36.423Z,2.13
2023-03-17T08:36:57.464Z,2.17
2023-03-17T08:40:01.479Z,2.20
2023-03-17T08:43:06.308Z,2.21
2023-03-17T08:46:16.699Z,2.23
2023-03-17T08:49:22.327Z,2.23
2023-03-17T08:52:28.583Z,2.23
2023-03-17T08:55:31.795Z,2.25
2023-03-17T08:58:42.780Z,2.27
2023-03-17T09:01:45.565Z,2.28
2023-03-17T09:04:50.958Z,2.31
2023-03-17T09:07:56.632Z,2.34
2023-03-17T09:10:56.956Z,2.35
2023-03-17T09:13:58.522Z,2.37
2023-03-17T09:17:04.046Z,2.42
2023-03-17T09:20:08.633Z,2.46
2023-03-17T09:23:20.130Z,2.48
2023-03-17T09:26:22.381Z,2.51
2023-03-17T09:29:26.226Z,2.56
2023-03-17T09:32:29.496Z,2.61
2023-03-17T09:35:40.277Z,2.61
2023-03-17T09:38:43.793Z,2.61
2023-03-17T09:42:05.395Z,2.62
2023-03-17T09:45:48.593Z,2.66
2023-03-17T09:48:57.998Z,2.76
2023-03-17T09:52:12.927Z,2.76
2023-03-17T09:55:31.168Z,2.75
2023-03-17T09:58:38.417Z,2.71
2023-03-17T10:01:46.584Z,2.65
2023-03-17T10:04:52.075Z,2.64
2023-03-17T10:08:05.452Z,2.63
2023-03-17T10:11:13.428Z,2.69
2023-03-17T10:14:30.445Z,2.69
2023-03-17T10:17:46.539Z,2.72
2023-03-17T10:20:48.697Z,2.73
2023-03-17T10:24:00.772Z,2.76
2023-03-17T10:27:11.978Z,2.77
2023-03-17T10:30:24.553Z,2.73
2023-03-17T10:33:46.961Z,2.70
2023-03-17T10:37:07.478Z,2.74
2023-03-17T10:40:11.898Z,2.82
2023-03-17T10:43:23.096Z,2.85
2023-03-17T10:46:41.858Z,2.84
2023-03-17T10:49:46.464Z,2.83
2023-03-17T10:52:49.718Z,2.83
2023-03-17T10:55:56.641Z,2.84
2023-03-17T10:59:08.023Z,2.82
2023-03-17T11:02:11.993Z,2.77
2023-03-17T11:05:39.749Z,2.74
2023-03-17T11:09:06.636Z,2.73
2023-03-17T11:12:19.130Z,2.76
2023-03-17T11:15:32.223Z,2.79
2023-03-17T11:18:40.899Z,2.79
2023-03-17T11:21:52.782Z,2.81
2023-03-17T11:28:23.781Z,2.85
2023-03-17T11:31:43.724Z,2.86
2023-03-17T11:35:13.410Z,2.88
2023-03-17T11:38:34.591Z,2.89
2023-03-17T11:41:49.759Z,2.91
2023-03-17T11:45:29.417Z,2.91
2023-03-17T11:49:16.055Z,2.91
2023-03-17T11:52:33.820Z,2.97
2023-03-17T11:55:55.591Z,3.01
2023-03-17T11:58:57.803Z,2.99
2023-03-17T12:02:03.675Z,2.97
2023-03-17T12:05:08.656Z,2.98
2023-03-17T12:08:14.713Z,2.98
2023-03-17T12:11:18.021Z,3.01
2023-03-17T12:14:18.681Z,3.00
2023-03-17T12:17:34.829Z,3.00
2023-03-17T12:20:54.635Z,2.99
2023-03-17T12:24:03.812Z,3.00
2023-03-17T12:27:05.996Z,3.04
2023-03-17T12:30:08.916Z,3.08
2023-03-17T12:33:28.945Z,3.06
2023-03-17T12:36:34.279Z,3.02
2023-03-17T12:39:38.235Z,3.01
2023-03-17T12:42:45.475Z,3.00
2023-03-17T12:46:06.112Z,2.96
2023-03-17T12:49:08.784Z,2.93
2023-03-17T12:52:10.008Z,2.93
2023-03-17T12:55:10.968Z,2.91
2023-03-17T12:58:20.783Z,2.90
2023-03-17T13:01:31.873Z,2.93
2023-03-17T13:04:42.687Z,2.96
2023-03-17T13:07:48.607Z,2.99
2023-03-17T13:10:58.020Z,3.00
2023-03-17T13:14:07.352Z,2.99
2023-03-17T13:17:18.821Z,2.99
2023-03-17T13:20:21.822Z,2.99
2023-03-17T13:23:27.945Z,2.99
2023-03-17T13:26:40.390Z,3.00
2023-03-17T13:29:43.996Z,2.99
2023-03-17T13:32:46.137Z,2.99
2023-03-17T13:36:04.860Z,3.01
2023-03-17T13:39:21.296Z,3.01
2023-03-17T13:42:57.327Z,2.99
2023-03-17T13:46:02.145Z,2.98
2023-03-17T13:49:06.975Z,2.97
2023-03-17T13:52:40.080Z,2.95
2023-03-17T13:55:51.380Z,2.95
2023-03-17T13:59:16.060Z,2.91
2023-03-17T14:02:49.346Z,2.90
2023-03-17T14:06:09.819Z,2.93
2023-03-17T14:09:16.484Z,2.96
2023-03-17T14:12:41.071Z,3.00
2023-03-17T14:15:53.879Z,2.97
2023-03-17T14:18:55.890Z,2.96
2023-03-17T14:21:58.926Z,2.98
2023-03-17T14:25:07.089Z,3.02
2023-03-17T14:28:12.091Z,3.03
2023-03-17T14:31:17.346Z,3.09
2023-03-17T14:34:19.102Z,3.12
2023-03-17T14:37:23.932Z,3.13
2023-03-17T14:40:32.496Z,3.13
2023-03-17T14:43:35.997Z,3.11
2023-03-17T14:46:43.012Z,3.10
2023-03-17T14:49:44.259Z,3.13
2023-03-17T14:52:50.181Z,3.16
2023-03-17T14:55:57.748Z,3.17
2023-03-17T15:02:48.153Z,3.19
2023-03-17T15:05:55.260Z,3.17
2023-03-17T15:09:01.037Z,3.16
2023-03-17T15:12:06.296Z,3.14
2023-03-17T15:15:14.066Z,3.12
2023-03-17T15:18:36.155Z,3.07
2023-03-17T15:21:40.975Z,3.02
2023-03-17T15:24:50.149Z,3.01
2023-03-17T15:27:51.153Z,2.99
2023-03-17T15:30:55.250Z,2.99
2023-03-17T15:33:58.023Z,2.98
2023-03-17T15:37:09.219Z,2.93
2023-03-17T15:40:12.103Z,2.89
2023-03-17T15:43:27.170Z,2.89
2023-03-17T15:46:48.405Z,2.93
2023-03-17T15:49:56.080Z,2.96
2023-03-17T15:53:03.213Z,2.95
2023-03-17T15:56:09.624Z,2.97
2023-03-17T15:59:12.012Z,2.95
2023-03-17T16:02:30.602Z,2.95
2023-03-17T16:05:34.123Z,2.94
2023-03-17T16:08:41.857Z,2.91
2023-03-17T16:11:46.073Z,2.92
2023-03-17T16:14:53.403Z,2.91
2023-03-17T16:17:57.457Z,2.90
2023-03-17T16:21:00.107Z,2.89
2023-03-17T16:24:02.653Z,2.91
2023-03-17T16:27:06.076Z,2.94
2023-03-17T16:30:10.096Z,2.96
2023-03-17T16:33:16.396Z,3.01
2023-03-17T16:36:17.464Z,3.06
2023-03-17T16:39:22.218Z,3.07
2023-03-17T16:42:40.293Z,3.09
2023-03-17T16:45:45.073Z,3.10
2023-03-17T16:48:46.267Z,3.10
2023-03-17T16:51:50.216Z,3.10
2023-03-17T16:54:54.108Z,3.07
2023-03-17T16:57:57.663Z,3.08
2023-03-17T17:01:01.266Z,3.09
2023-03-17T17:04:05.126Z,3.09
2023-03-17T17:07:06.296Z,3.09
2023-03-17T17:10:07.160Z,3.11
2023-03-17T17:13:09.164Z,3.14
2023-03-17T17:16:16.209Z,3.17
2023-03-17T17:19:16.182Z,3.19
2023-03-17T17:22:18.336Z,3.18
2023-03-17T17:25:18.160Z,3.20
2023-03-17T17:28:20.158Z,3.21
2023-03-17T17:31:22.247Z,3.21
2023-03-17T17:34:25.226Z,3.20
2023-03-17T17:37:26.395Z,3.20
2023-03-17T17:40:31.541Z,3.20
2023-03-17T17:43:33.319Z,3.19
2023-03-17T17:46:38.257Z,3.17
2023-03-17T17:49:39.232Z,3.18
2023-03-17T17:52:39.487Z,3.20
2023-03-17T17:55:39.263Z,3.21
2023-03-17T17:58:44.282Z,3.20
2023-03-17T18:01:45.317Z,3.19
2023-03-17T18:04:47.338Z,3.22
2023-03-17T18:07:52.361Z,3.24
2023-03-17T18:10:52.604Z,3.27
2023-03-17T18:13:55.226Z,3.30
2023-03-17T18:16:56.687Z,3.33
2023-03-17T18:20:04.555Z,3.36
2023-03-17T18:23:06.334Z,3.38
2023-03-17T18:26:16.924Z,3.38
2023-03-17T18:29:19.417Z,3.37
2023-03-17T18:32:33.575Z,3.41
2023-03-17T18:35:38.686Z,3.43
2023-03-17T18:38:40.418Z,3.44
2023-03-17T18:41:42.901Z,3.42
2023-03-17T18:44:47.356Z,3.39
2023-03-17T18:47:48.112Z,3.36
2023-03-17T18:50:42.455Z,3.35
2023-03-17T18:53:46.336Z,3.35
2023-03-17T18:56:48.414Z,3.38
2023-03-17T18:59:51.441Z,3.38
2023-03-17T19:02:52.343Z,3.37
2023-03-17T19:09:12.619Z,3.32
2023-03-17T19:12:13.508Z,3.30
2023-03-17T19:15:18.375Z,3.27
2023-03-17T19:18:31.229Z,3.25
2023-03-17T19:21:32.414Z,3.25
2023-03-17T19:24:34.483Z,3.24
2023-03-17T19:27:36.360Z,3.22
2023-03-17T19:30:40.451Z,3.22
2023-03-17T19:33:43.465Z,3.21
2023-03-17T19:36:48.464Z,3.21
2023-03-17T19:39:57.541Z,3.23
2023-03-17T19:43:04.141Z,3.27
2023-03-17T19:46:07.401Z,3.28
2023-03-17T19:49:08.705Z,3.30
2023-03-17T19:52:08.500Z,3.30
2023-03-17T19:55:11.626Z,3.27
2023-03-17T19:58:14.488Z,3.27
2023-03-17T20:01:15.491Z,3.27
2023-03-17T20:04:17.576Z,3.28
2023-03-17T20:07:20.454Z,3.27
2023-03-17T20:10:22.913Z,3.27
2023-03-17T20:13:25.597Z,3.26
2023-03-17T20:16:29.505Z,3.21
2023-03-17T20:19:30.549Z,3.17
2023-03-17T20:22:33.951Z,3.16
2023-03-17T20:25:35.549Z,3.15
2023-03-17T20:28:36.652Z,3.16
2023-03-17T20:31:37.500Z,3.17
2023-03-17T20:34:38.509Z,3.18
2023-03-17T20:37:40.505Z,3.16
2023-03-17T20:40:45.559Z,3.11
2023-03-17T20:43:46.502Z,3.07
2023-03-17T20:46:51.102Z,3.06
2023-03-17T20:49:58.701Z,3.06
2023-03-17T20:53:00.030Z,3.03
2023-03-17T20:56:08.608Z,3.00
2023-03-17T20:59:11.652Z,3.03
2023-03-17T21:02:15.922Z,3.06
2023-03-17T21:05:17.682Z,2.98
2023-03-17T21:08:18.570Z,2.95
2023-03-17T21:11:35.818Z,2.96
2023-03-17T21:14:40.949Z,3.00
2023-03-17T21:17:49.584Z,3.02
2023-03-17T21:21:17.454Z,3.05
2023-03-17T21:24:45.765Z,3.10
2023-03-17T21:27:55.579Z,3.11
2023-03-17T21:31:15.686Z,3.14
2023-03-17T21:34:36.424Z,3.16
2023-03-17T21:37:47.354Z,3.17
2023-03-17T21:40:49.622Z,3.19
2023-03-17T21:43:53.673Z,3.21
2023-03-17T21:46:55.945Z,3.24
2023-03-17T21:49:58.802Z,3.25
2023-03-17T21:53:01.838Z,3.26
2023-03-17T21:56:03.740Z,3.26
2023-03-17T22:02:55.434Z,3.27
2023-03-17T22:06:00.646Z,3.27
2023-03-17T22:09:09.670Z,3.31
2023-03-17T22:12:13.368Z,3.36
2023-03-17T22:15:28.638Z,3.37
2023-03-17T22:18:30.719Z,3.34
2023-03-17T22:21:41.290Z,3.30
2023-03-17T22:24:47.670Z,3.27
2023-03-17T22:27:47.643Z,3.25
2023-03-17T22:30:50.624Z,3.23
2023-03-17T22:33:55.199Z,3.21
2023-03-17T22:37:02.658Z,3.18
2023-03-17T22:40:08.799Z,3.15
2023-03-17T22:43:11.687Z,3.12
2023-03-17T22:46:18.335Z,3.11
2023-03-17T22:49:21.667Z,3.12
2023-03-17T22:52:23.569Z,3.14
2023-03-17T22:55:24.702Z,3.15
2023-03-17T22:58:26.426Z,3.15
2023-03-17T23:01:29.853Z,3.13
2023-03-17T23:04:32.794Z,3.12
2023-03-17T23:07:44.291Z,3.11
2023-03-17T23:10:50.145Z,3.09
2023-03-17T23:13:54.083Z,3.11
2023-03-17T23:16:55.760Z,3.14
2023-03-17T23:19:57.811Z,3.16
2023-03-17T23:22:58.830Z,3.16
2023-03-17T23:26:03.009Z,3.17
2023-03-17T23:29:04.745Z,3.17
2023-03-17T23:32:06.793Z,3.18
2023-03-17T23:35:09.047Z,3.18
2023-03-17T23:38:09.822Z,3.19
2023-03-17T23:41:09.870Z,3.17
2023-03-17T23:44:15.296Z,3.13
2023-03-17T23:47:20.067Z,3.12
2023-03-17T23:50:25.971Z,3.12
2023-03-17T23:53:26.820Z,3.14
2023-03-17T23:56:31.883Z,3.14
2023-03-17T23:59:32.969Z,3.14
